sensor_id;sensor_type;location;lat;lon;timestamp;temperature;humidity
20744;DHT22;56303;52.160;-0.428;2023-08-20T00:00:42;19.50;99.90
20744;DHT22;56303;52.160;-0.428;2023-08-20T00:03:13;19.40;99.90
20744;DHT22;56303;52.160;-0.428;2023-08-20T00:05:41;19.40;99.90
20744;DHT22;56303;52.160;-0.428;2023-08-20T00:08:07;19.30;99.90
20744;DHT22;56303;52.160;-0.428;2023-08-20T00:10:34;19.30;99.90
20744;DHT22;56303;52.160;-0.428;2023-08-20T00:13:01;19.40;99.90
20744;DHT22;56303;52.160;-0.428;2023-08-20T00:15:28;19.40;99.90
20744;DHT22;56303;52.160;-0.428;2023-08-20T00:17:55;19.30;99.90
20744;DHT22;56303;52.160;-0.428;2023-08-20T00:20:23;19.40;99.90
20744;DHT22;56303;52.160;-0.428;2023-08-20T00:22:50;19.50;99.90
20744;DHT22;56303;52.160;-0.428;2023-08-20T00:25:17;19.40;99.90
20744;DHT22;56303;52.160;-0.428;2023-08-20T00:27:44;19.40;99.90
20744;DHT22;56303;52.160;-0.428;2023-08-20T00:30:12;19.30;99.90
20744;DHT22;56303;52.160;-0.428;2023-08-20T00:32:39;19.30;99.90
20744;DHT22;56303;52.160;-0.428;2023-08-20T00:35:06;19.10;99.90
20744;DHT22;56303;52.160;-0.428;2023-08-20T00:37:34;19.10;99.90
20744;DHT22;56303;52.160;-0.428;2023-08-20T00:40:02;18.60;99.90
20744;DHT22;56303;52.160;-0.428;2023-08-20T00:42:32;18.90;99.90
20744;DHT22;56303;52.160;-0.428;2023-08-20T00:44:59;18.90;99.90
20744;DHT22;56303;52.160;-0.428;2023-08-20T00:47:27;18.70;99.90
20744;DHT22;56303;52.160;-0.428;2023-08-20T00:49:55;18.70;99.90
20744;DHT22;56303;52.160;-0.428;2023-08-20T00:52:22;18.70;99.90
20744;DHT22;56303;52.160;-0.428;2023-08-20T00:54:50;18.70;99.90
20744;DHT22;56303;52.160;-0.428;2023-08-20T00:57:20;18.70;99.90
20744;DHT22;56303;52.160;-0.428;2023-08-20T00:59:48;18.70;99.90
20744;DHT22;56303;52.160;-0.428;2023-08-20T01:02:18;18.60;99.90
20744;DHT22;56303;52.160;-0.428;2023-08-20T01:04:47;18.60;99.90
20744;DHT22;56303;52.160;-0.428;2023-08-20T01:07:24;18.60;99.90
20744;DHT22;56303;52.160;-0.428;2023-08-20T01:12:39;18.60;99.90
20744;DHT22;56303;52.160;-0.428;2023-08-20T01:15:06;18.40;99.90
20744;DHT22;56303;52.160;-0.428;2023-08-20T01:17:35;18.40;99.90
20744;DHT22;56303;52.160;-0.428;2023-08-20T01:20:02;18.20;99.90
20744;DHT22;56303;52.160;-0.428;2023-08-20T01:25:42;18.40;99.90
20744;DHT22;56303;52.160;-0.428;2023-08-20T01:28:25;18.50;99.90
20744;DHT22;56303;52.160;-0.428;2023-08-20T01:30:53;18.60;99.90
20744;DHT22;56303;52.160;-0.428;2023-08-20T01:33:21;18.60;99.90
20744;DHT22;56303;52.160;-0.428;2023-08-20T01:35:48;18.60;99.90
20744;DHT22;56303;52.160;-0.428;2023-08-20T01:38:15;18.60;99.90
20744;DHT22;56303;52.160;-0.428;2023-08-20T01:40:42;18.40;99.90
20744;DHT22;56303;52.160;-0.428;2023-08-20T01:43:09;18.40;99.90
20744;DHT22;56303;52.160;-0.428;2023-08-20T01:45:36;18.60;99.90
20744;DHT22;56303;52.160;-0.428;2023-08-20T01:48:03;18.60;99.90
20744;DHT22;56303;52.160;-0.428;2023-08-20T01:50:34;18.60;99.90
20744;DHT22;56303;52.160;-0.428;2023-08-20T01:53:02;18.70;99.90
20744;DHT22;56303;52.160;-0.428;2023-08-20T01:55:29;18.80;99.90
20744;DHT22;56303;52.160;-0.428;2023-08-20T01:57:58;18.80;99.90
20744;DHT22;56303;52.160;-0.428;2023-08-20T02:00:25;18.80;99.90
20744;DHT22;56303;52.160;-0.428;2023-08-20T02:02:53;18.90;99.90
20744;DHT22;56303;52.160;-0.428;2023-08-20T02:05:20;18.80;99.90
20744;DHT22;56303;52.160;-0.428;2023-08-20T02:07:47;18.80;99.90
20744;DHT22;56303;52.160;-0.428;2023-08-20T02:10:14;18.70;99.90
20744;DHT22;56303;52.160;-0.428;2023-08-20T02:12:41;18.70;99.90
20744;DHT22;56303;52.160;-0.428;2023-08-20T02:15:08;18.40;99.90
20744;DHT22;56303;52.160;-0.428;2023-08-20T02:17:35;18.40;99.90
20744;DHT22;56303;52.160;-0.428;2023-08-20T02:20:03;18.40;99.90
20744;DHT22;56303;52.160;-0.428;2023-08-20T02:22:31;18.40;99.90
20744;DHT22;56303;52.160;-0.428;2023-08-20T02:24:58;18.30;99.90
20744;DHT22;56303;52.160;-0.428;2023-08-20T02:27:24;18.40;99.90
20744;DHT22;56303;52.160;-0.428;2023-08-20T02:29:51;18.40;99.90
20744;DHT22;56303;52.160;-0.428;2023-08-20T02:32:18;18.40;99.90
20744;DHT22;56303;52.160;-0.428;2023-08-20T02:34:52;18.30;99.90
20744;DHT22;56303;52.160;-0.428;2023-08-20T02:37:18;18.30;99.90
20744;DHT22;56303;52.160;-0.428;2023-08-20T02:39:45;18.40;99.90
20744;DHT22;56303;52.160;-0.428;2023-08-20T02:42:12;18.40;99.90
20744;DHT22;56303;52.160;-0.428;2023-08-20T02:44:39;18.50;99.90
20744;DHT22;56303;52.160;-0.428;2023-08-20T02:47:06;18.60;99.90
20744;DHT22;56303;52.160;-0.428;2023-08-20T02:49:33;18.90;99.90
20744;DHT22;56303;52.160;-0.428;2023-08-20T02:51:59;18.90;99.90
20744;DHT22;56303;52.160;-0.428;2023-08-20T02:54:26;18.90;99.90
20744;DHT22;56303;52.160;-0.428;2023-08-20T02:56:53;19.00;99.90
20744;DHT22;56303;52.160;-0.428;2023-08-20T02:59:20;19.00;99.90
20744;DHT22;56303;52.160;-0.428;2023-08-20T03:01:47;19.10;99.90
20744;DHT22;56303;52.160;-0.428;2023-08-20T03:04:13;19.00;99.90
20744;DHT22;56303;52.160;-0.428;2023-08-20T03:06:40;19.00;99.90
20744;DHT22;56303;52.160;-0.428;2023-08-20T03:09:07;18.90;99.90
20744;DHT22;56303;52.160;-0.428;2023-08-20T03:11:34;18.90;99.90
20744;DHT22;56303;52.160;-0.428;2023-08-20T03:14:01;18.90;99.90
20744;DHT22;56303;52.160;-0.428;2023-08-20T03:16:27;18.70;99.90
20744;DHT22;56303;52.160;-0.428;2023-08-20T03:18:54;18.60;99.90
20744;DHT22;56303;52.160;-0.428;2023-08-20T03:21:21;18.60;99.90
20744;DHT22;56303;52.160;-0.428;2023-08-20T03:23:49;18.60;99.90
20744;DHT22;56303;52.160;-0.428;2023-08-20T03:26:16;18.70;99.90
20744;DHT22;56303;52.160;-0.428;2023-08-20T03:28:42;18.80;99.90
20744;DHT22;56303;52.160;-0.428;2023-08-20T03:31:09;18.60;99.90
20744;DHT22;56303;52.160;-0.428;2023-08-20T03:33:36;18.60;99.90
20744;DHT22;56303;52.160;-0.428;2023-08-20T03:36:03;18.60;99.90
20744;DHT22;56303;52.160;-0.428;2023-08-20T03:38:30;18.50;99.90
20744;DHT22;56303;52.160;-0.428;2023-08-20T03:40:57;18.50;99.90
20744;DHT22;56303;52.160;-0.428;2023-08-20T03:43:23;18.50;99.90
20744;DHT22;56303;52.160;-0.428;2023-08-20T03:45:51;18.40;99.90
20744;DHT22;56303;52.160;-0.428;2023-08-20T03:48:19;18.30;99.90
20744;DHT22;56303;52.160;-0.428;2023-08-20T03:50:47;18.30;99.90
20744;DHT22;56303;52.160;-0.428;2023-08-20T03:53:13;18.30;99.90
20744;DHT22;56303;52.160;-0.428;2023-08-20T03:55:40;18.00;99.90
20744;DHT22;56303;52.160;-0.428;2023-08-20T03:58:07;18.10;99.90
20744;DHT22;56303;52.160;-0.428;2023-08-20T04:00:35;18.00;99.90
20744;DHT22;56303;52.160;-0.428;2023-08-20T04:03:02;18.00;99.90
20744;DHT22;56303;52.160;-0.428;2023-08-20T04:05:29;17.60;99.90
20744;DHT22;56303;52.160;-0.428;2023-08-20T04:07:56;17.70;99.90
20744;DHT22;56303;52.160;-0.428;2023-08-20T04:10:22;17.60;99.90
20744;DHT22;56303;52.160;-0.428;2023-08-20T04:12:49;17.70;99.90
20744;DHT22;56303;52.160;-0.428;2023-08-20T04:15:16;17.80;99.90
20744;DHT22;56303;52.160;-0.428;2023-08-20T04:17:43;17.70;99.90
20744;DHT22;56303;52.160;-0.428;2023-08-20T04:20:10;17.60;99.90
20744;DHT22;56303;52.160;-0.428;2023-08-20T04:22:37;17.60;99.90
20744;DHT22;56303;52.160;-0.428;2023-08-20T04:25:05;17.40;99.90
20744;DHT22;56303;52.160;-0.428;2023-08-20T04:27:32;17.40;99.90
20744;DHT22;56303;52.160;-0.428;2023-08-20T04:30:00;17.50;99.90
20744;DHT22;56303;52.160;-0.428;2023-08-20T04:32:27;17.40;99.90
20744;DHT22;56303;52.160;-0.428;2023-08-20T04:34:54;17.50;99.90
20744;DHT22;56303;52.160;-0.428;2023-08-20T04:37:21;17.70;99.90
20744;DHT22;56303;52.160;-0.428;2023-08-20T04:39:48;17.60;99.90
20744;DHT22;56303;52.160;-0.428;2023-08-20T04:42:15;17.50;99.90
20744;DHT22;56303;52.160;-0.428;2023-08-20T04:44:42;17.50;99.90
20744;DHT22;56303;52.160;-0.428;2023-08-20T04:47:12;17.50;99.90
20744;DHT22;56303;52.160;-0.428;2023-08-20T04:49:39;17.50;99.90
20744;DHT22;56303;52.160;-0.428;2023-08-20T04:52:06;17.50;99.90
20744;DHT22;56303;52.160;-0.428;2023-08-20T04:54:33;17.60;99.90
20744;DHT22;56303;52.160;-0.428;2023-08-20T04:57:00;17.60;99.90
20744;DHT22;56303;52.160;-0.428;2023-08-20T04:59:27;17.60;99.90
20744;DHT22;56303;52.160;-0.428;2023-08-20T05:01:54;17.60;99.90
20744;DHT22;56303;52.160;-0.428;2023-08-20T05:04:22;18.00;99.90
20744;DHT22;56303;52.160;-0.428;2023-08-20T05:06:49;17.70;99.90
20744;DHT22;56303;52.160;-0.428;2023-08-20T05:09:16;17.70;99.90
20744;DHT22;56303;52.160;-0.428;2023-08-20T05:11:42;17.70;99.90
20744;DHT22;56303;52.160;-0.428;2023-08-20T05:14:09;17.70;99.90
20744;DHT22;56303;52.160;-0.428;2023-08-20T05:16:36;17.70;99.90
20744;DHT22;56303;52.160;-0.428;2023-08-20T05:19:03;17.80;99.90
20744;DHT22;56303;52.160;-0.428;2023-08-20T05:21:31;17.80;99.90
20744;DHT22;56303;52.160;-0.428;2023-08-20T05:23:58;17.90;99.90
20744;DHT22;56303;52.160;-0.428;2023-08-20T05:26:26;18.00;99.90
20744;DHT22;56303;52.160;-0.428;2023-08-20T05:28:53;18.00;99.90
20744;DHT22;56303;52.160;-0.428;2023-08-20T05:31:20;18.10;99.90
20744;DHT22;56303;52.160;-0.428;2023-08-20T05:33:47;18.00;99.90
20744;DHT22;56303;52.160;-0.428;2023-08-20T05:36:14;18.10;99.90
20744;DHT22;56303;52.160;-0.428;2023-08-20T05:38:41;18.20;99.90
20744;DHT22;56303;52.160;-0.428;2023-08-20T05:41:11;18.20;99.90
20744;DHT22;56303;52.160;-0.428;2023-08-20T05:43:38;18.30;99.90
20744;DHT22;56303;52.160;-0.428;2023-08-20T05:46:05;18.30;99.90
20744;DHT22;56303;52.160;-0.428;2023-08-20T05:48:32;18.20;99.90
20744;DHT22;56303;52.160;-0.428;2023-08-20T05:50:59;18.10;99.90
20744;DHT22;56303;52.160;-0.428;2023-08-20T05:53:26;17.80;99.90
20744;DHT22;56303;52.160;-0.428;2023-08-20T05:55:53;17.70;99.90
20744;DHT22;56303;52.160;-0.428;2023-08-20T05:58:19;17.50;99.90
20744;DHT22;56303;52.160;-0.428;2023-08-20T06:00:46;17.60;99.90
20744;DHT22;56303;52.160;-0.428;2023-08-20T06:03:13;17.90;99.90
20744;DHT22;56303;52.160;-0.428;2023-08-20T06:05:40;18.10;99.90
20744;DHT22;56303;52.160;-0.428;2023-08-20T06:08:07;18.00;99.90
20744;DHT22;56303;52.160;-0.428;2023-08-20T06:10:34;18.10;99.90
20744;DHT22;56303;52.160;-0.428;2023-08-20T06:13:01;18.20;99.90
20744;DHT22;56303;52.160;-0.428;2023-08-20T06:15:28;18.30;99.90
20744;DHT22;56303;52.160;-0.428;2023-08-20T06:17:55;18.50;99.90
20744;DHT22;56303;52.160;-0.428;2023-08-20T06:20:22;18.60;99.90
20744;DHT22;56303;52.160;-0.428;2023-08-20T06:22:49;18.70;99.90
20744;DHT22;56303;52.160;-0.428;2023-08-20T06:25:16;18.70;99.90
20744;DHT22;56303;52.160;-0.428;2023-08-20T06:27:43;18.70;99.90
20744;DHT22;56303;52.160;-0.428;2023-08-20T06:30:11;18.60;99.90
20744;DHT22;56303;52.160;-0.428;2023-08-20T06:32:38;18.60;99.90
20744;DHT22;56303;52.160;-0.428;2023-08-20T06:35:07;18.70;99.90
20744;DHT22;56303;52.160;-0.428;2023-08-20T06:37:35;18.70;99.90
20744;DHT22;56303;52.160;-0.428;2023-08-20T06:40:03;18.70;99.90
20744;DHT22;56303;52.160;-0.428;2023-08-20T06:42:30;18.50;99.90
20744;DHT22;56303;52.160;-0.428;2023-08-20T06:44:57;18.60;99.90
20744;DHT22;56303;52.160;-0.428;2023-08-20T06:47:24;18.70;99.90
20744;DHT22;56303;52.160;-0.428;2023-08-20T06:49:51;18.60;99.90
20744;DHT22;56303;52.160;-0.428;2023-08-20T06:52:18;18.70;99.90
20744;DHT22;56303;52.160;-0.428;2023-08-20T06:54:45;18.80;99.90
20744;DHT22;56303;52.160;-0.428;2023-08-20T06:57:11;19.00;99.90
20744;DHT22;56303;52.160;-0.428;2023-08-20T06:59:38;19.00;99.90
20744;DHT22;56303;52.160;-0.428;2023-08-20T07:02:05;18.90;99.90
20744;DHT22;56303;52.160;-0.428;2023-08-20T07:04:32;18.80;99.90
20744;DHT22;56303;52.160;-0.428;2023-08-20T07:07:00;19.10;99.90
20744;DHT22;56303;52.160;-0.428;2023-08-20T07:09:26;18.70;99.90
20744;DHT22;56303;52.160;-0.428;2023-08-20T07:11:53;18.70;99.90
20744;DHT22;56303;52.160;-0.428;2023-08-20T07:14:20;18.40;99.90
20744;DHT22;56303;52.160;-0.428;2023-08-20T07:16:47;18.40;99.90
20744;DHT22;56303;52.160;-0.428;2023-08-20T07:19:14;18.30;99.90
20744;DHT22;56303;52.160;-0.428;2023-08-20T07:21:40;18.50;99.90
20744;DHT22;56303;52.160;-0.428;2023-08-20T07:24:07;18.60;99.90
20744;DHT22;56303;52.160;-0.428;2023-08-20T07:26:34;18.60;99.90
20744;DHT22;56303;52.160;-0.428;2023-08-20T07:29:01;18.70;99.90
20744;DHT22;56303;52.160;-0.428;2023-08-20T07:31:29;18.70;99.90
20744;DHT22;56303;52.160;-0.428;2023-08-20T07:33:57;18.80;99.90
20744;DHT22;56303;52.160;-0.428;2023-08-20T07:36:30;18.70;99.90
20744;DHT22;56303;52.160;-0.428;2023-08-20T07:38:58;18.90;99.90
20744;DHT22;56303;52.160;-0.428;2023-08-20T07:41:28;19.10;99.90
20744;DHT22;56303;52.160;-0.428;2023-08-20T07:43:55;19.10;99.90
20744;DHT22;56303;52.160;-0.428;2023-08-20T07:46:22;19.10;99.90
20744;DHT22;56303;52.160;-0.428;2023-08-20T07:48:48;19.10;99.90
20744;DHT22;56303;52.160;-0.428;2023-08-20T07:51:15;19.20;99.90
20744;DHT22;56303;52.160;-0.428;2023-08-20T07:53:42;19.10;99.90
20744;DHT22;56303;52.160;-0.428;2023-08-20T07:56:09;19.20;99.90
20744;DHT22;56303;52.160;-0.428;2023-08-20T07:58:36;19.30;99.90
20744;DHT22;56303;52.160;-0.428;2023-08-20T08:01:02;19.40;99.90
20744;DHT22;56303;52.160;-0.428;2023-08-20T08:03:29;19.60;99.90
20744;DHT22;56303;52.160;-0.428;2023-08-20T08:05:56;19.80;99.90
20744;DHT22;56303;52.160;-0.428;2023-08-20T08:08:23;19.70;99.90
20744;DHT22;56303;52.160;-0.428;2023-08-20T08:10:51;19.70;99.90
20744;DHT22;56303;52.160;-0.428;2023-08-20T08:13:20;19.60;99.90
20744;DHT22;56303;52.160;-0.428;2023-08-20T08:15:48;19.70;99.90
20744;DHT22;56303;52.160;-0.428;2023-08-20T08:18:15;19.80;99.90
20744;DHT22;56303;52.160;-0.428;2023-08-20T08:20:42;19.80;99.90
20744;DHT22;56303;52.160;-0.428;2023-08-20T08:23:09;19.70;99.90
20744;DHT22;56303;52.160;-0.428;2023-08-20T08:25:36;19.60;99.90
20744;DHT22;56303;52.160;-0.428;2023-08-20T08:28:05;19.90;99.90
20744;DHT22;56303;52.160;-0.428;2023-08-20T08:30:32;20.00;99.90
20744;DHT22;56303;52.160;-0.428;2023-08-20T08:32:59;20.20;99.90
20744;DHT22;56303;52.160;-0.428;2023-08-20T08:35:26;20.20;99.90
20744;DHT22;56303;52.160;-0.428;2023-08-20T08:37:53;20.30;99.90
20744;DHT22;56303;52.160;-0.428;2023-08-20T08:40:20;20.60;99.90
20744;DHT22;56303;52.160;-0.428;2023-08-20T08:42:50;20.90;99.90
20744;DHT22;56303;52.160;-0.428;2023-08-20T08:45:21;20.80;99.90
20744;DHT22;56303;52.160;-0.428;2023-08-20T08:47:49;20.90;99.90
20744;DHT22;56303;52.160;-0.428;2023-08-20T08:50:16;21.20;99.90
20744;DHT22;56303;52.160;-0.428;2023-08-20T08:52:45;20.90;99.90
20744;DHT22;56303;52.160;-0.428;2023-08-20T08:55:13;20.70;99.90
20744;DHT22;56303;52.160;-0.428;2023-08-20T08:57:40;20.90;99.90
20744;DHT22;56303;52.160;-0.428;2023-08-20T09:00:07;21.00;99.90
20744;DHT22;56303;52.160;-0.428;2023-08-20T09:02:34;21.20;99.90
20744;DHT22;56303;52.160;-0.428;2023-08-20T09:05:01;21.10;99.90
20744;DHT22;56303;52.160;-0.428;2023-08-20T09:07:28;21.00;99.90
20744;DHT22;56303;52.160;-0.428;2023-08-20T09:09:58;21.00;99.90
20744;DHT22;56303;52.160;-0.428;2023-08-20T09:12:34;20.90;99.90
20744;DHT22;56303;52.160;-0.428;2023-08-20T09:15:01;20.60;99.90
20744;DHT22;56303;52.160;-0.428;2023-08-20T09:17:28;20.70;99.90
20744;DHT22;56303;52.160;-0.428;2023-08-20T09:19:56;20.70;99.90
20744;DHT22;56303;52.160;-0.428;2023-08-20T09:22:24;21.00;99.90
20744;DHT22;56303;52.160;-0.428;2023-08-20T09:24:56;21.20;99.90
20744;DHT22;56303;52.160;-0.428;2023-08-20T09:27:23;21.40;99.90
20744;DHT22;56303;52.160;-0.428;2023-08-20T09:29:56;21.70;99.90
20744;DHT22;56303;52.160;-0.428;2023-08-20T09:32:27;21.80;99.90
20744;DHT22;56303;52.160;-0.428;2023-08-20T09:34:55;21.70;99.90
20744;DHT22;56303;52.160;-0.428;2023-08-20T09:37:24;21.90;99.90
20744;DHT22;56303;52.160;-0.428;2023-08-20T09:39:51;22.00;99.90
20744;DHT22;56303;52.160;-0.428;2023-08-20T09:42:18;22.00;99.90
20744;DHT22;56303;52.160;-0.428;2023-08-20T09:44:46;22.10;99.90
20744;DHT22;56303;52.160;-0.428;2023-08-20T09:47:16;22.00;99.90
20744;DHT22;56303;52.160;-0.428;2023-08-20T09:49:46;22.40;99.90
20744;DHT22;56303;52.160;-0.428;2023-08-20T09:52:24;22.30;99.90
20744;DHT22;56303;52.160;-0.428;2023-08-20T09:55:12;22.30;99.90
20744;DHT22;56303;52.160;-0.428;2023-08-20T09:57:47;22.40;99.90
20744;DHT22;56303;52.160;-0.428;2023-08-20T10:00:15;22.60;99.90
20744;DHT22;56303;52.160;-0.428;2023-08-20T10:02:42;22.60;99.90
20744;DHT22;56303;52.160;-0.428;2023-08-20T10:05:11;22.60;99.90
20744;DHT22;56303;52.160;-0.428;2023-08-20T10:07:38;22.70;99.90
20744;DHT22;56303;52.160;-0.428;2023-08-20T10:10:07;22.40;99.90
20744;DHT22;56303;52.160;-0.428;2023-08-20T10:12:36;22.50;99.90
20744;DHT22;56303;52.160;-0.428;2023-08-20T10:15:07;22.70;99.90
20744;DHT22;56303;52.160;-0.428;2023-08-20T10:17:37;22.70;99.90
20744;DHT22;56303;52.160;-0.428;2023-08-20T10:20:05;22.80;99.90
20744;DHT22;56303;52.160;-0.428;2023-08-20T10:22:43;23.20;99.90
20744;DHT22;56303;52.160;-0.428;2023-08-20T10:25:12;23.60;99.90
20744;DHT22;56303;52.160;-0.428;2023-08-20T10:28:10;23.50;99.90
20744;DHT22;56303;52.160;-0.428;2023-08-20T10:30:37;23.50;99.90
20744;DHT22;56303;52.160;-0.428;2023-08-20T10:33:04;23.20;99.90
20744;DHT22;56303;52.160;-0.428;2023-08-20T10:35:50;22.80;99.90
20744;DHT22;56303;52.160;-0.428;2023-08-20T10:38:17;22.60;99.90
20744;DHT22;56303;52.160;-0.428;2023-08-20T10:43:35;22.90;99.90
20744;DHT22;56303;52.160;-0.428;2023-08-20T10:48:39;23.20;99.90
20744;DHT22;56303;52.160;-0.428;2023-08-20T10:51:33;23.60;99.90
20744;DHT22;56303;52.160;-0.428;2023-08-20T10:56:54;23.90;99.90
20744;DHT22;56303;52.160;-0.428;2023-08-20T10:59:25;23.90;99.90
20744;DHT22;56303;52.160;-0.428;2023-08-20T11:01:54;24.10;99.90
20744;DHT22;56303;52.160;-0.428;2023-08-20T11:04:24;23.70;99.90
20744;DHT22;56303;52.160;-0.428;2023-08-20T11:06:55;23.60;99.90
20744;DHT22;56303;52.160;-0.428;2023-08-20T11:09:23;24.00;99.90
20744;DHT22;56303;52.160;-0.428;2023-08-20T11:11:51;24.00;99.90
20744;DHT22;56303;52.160;-0.428;2023-08-20T11:14:20;24.20;99.90
20744;DHT22;56303;52.160;-0.428;2023-08-20T11:16:48;24.10;99.90
20744;DHT22;56303;52.160;-0.428;2023-08-20T11:19:20;24.30;99.90
20744;DHT22;56303;52.160;-0.428;2023-08-20T11:21:48;24.50;99.90
20744;DHT22;56303;52.160;-0.428;2023-08-20T11:24:16;24.50;99.90
20744;DHT22;56303;52.160;-0.428;2023-08-20T11:26:44;24.40;99.90
20744;DHT22;56303;52.160;-0.428;2023-08-20T11:29:16;24.70;99.90
20744;DHT22;56303;52.160;-0.428;2023-08-20T11:31:51;24.80;99.90
20744;DHT22;56303;52.160;-0.428;2023-08-20T11:34:19;25.00;99.90
20744;DHT22;56303;52.160;-0.428;2023-08-20T11:36:46;25.00;99.90
20744;DHT22;56303;52.160;-0.428;2023-08-20T11:39:13;24.80;99.90
20744;DHT22;56303;52.160;-0.428;2023-08-20T11:41:41;25.10;99.90
20744;DHT22;56303;52.160;-0.428;2023-08-20T11:44:08;25.40;99.90
20744;DHT22;56303;52.160;-0.428;2023-08-20T11:46:43;25.50;99.90
20744;DHT22;56303;52.160;-0.428;2023-08-20T11:49:11;26.00;99.90
20744;DHT22;56303;52.160;-0.428;2023-08-20T11:51:43;25.80;99.90
20744;DHT22;56303;52.160;-0.428;2023-08-20T11:54:14;25.70;99.90
20744;DHT22;56303;52.160;-0.428;2023-08-20T11:56:46;25.80;99.90
20744;DHT22;56303;52.160;-0.428;2023-08-20T11:59:14;25.70;99.90
20744;DHT22;56303;52.160;-0.428;2023-08-20T12:01:41;25.70;99.90
20744;DHT22;56303;52.160;-0.428;2023-08-20T12:04:09;25.90;99.90
20744;DHT22;56303;52.160;-0.428;2023-08-20T12:06:38;25.70;99.90
20744;DHT22;56303;52.160;-0.428;2023-08-20T12:09:21;25.70;99.90
20744;DHT22;56303;52.160;-0.428;2023-08-20T12:11:52;26.20;99.90
20744;DHT22;56303;52.160;-0.428;2023-08-20T12:14:19;26.30;99.90
20744;DHT22;56303;52.160;-0.428;2023-08-20T12:16:46;26.60;99.90
20744;DHT22;56303;52.160;-0.428;2023-08-20T12:19:15;26.50;99.90
20744;DHT22;56303;52.160;-0.428;2023-08-20T12:21:44;26.20;99.90
20744;DHT22;56303;52.160;-0.428;2023-08-20T12:24:11;26.10;99.90
20744;DHT22;56303;52.160;-0.428;2023-08-20T12:26:39;26.20;99.90
20744;DHT22;56303;52.160;-0.428;2023-08-20T12:29:07;26.70;99.90
20744;DHT22;56303;52.160;-0.428;2023-08-20T12:31:34;27.30;99.90
20744;DHT22;56303;52.160;-0.428;2023-08-20T12:34:02;27.00;99.90
20744;DHT22;56303;52.160;-0.428;2023-08-20T12:36:29;26.80;99.90
20744;DHT22;56303;52.160;-0.428;2023-08-20T12:38:56;26.80;99.90
20744;DHT22;56303;52.160;-0.428;2023-08-20T12:41:23;27.30;99.90
20744;DHT22;56303;52.160;-0.428;2023-08-20T12:43:50;27.00;99.90
20744;DHT22;56303;52.160;-0.428;2023-08-20T12:46:20;27.10;99.90
20744;DHT22;56303;52.160;-0.428;2023-08-20T12:48:47;27.20;99.90
20744;DHT22;56303;52.160;-0.428;2023-08-20T12:51:16;27.10;99.90
20744;DHT22;56303;52.160;-0.428;2023-08-20T12:53:43;26.90;99.90
20744;DHT22;56303;52.160;-0.428;2023-08-20T12:56:10;27.40;99.90
20744;DHT22;56303;52.160;-0.428;2023-08-20T12:58:38;28.00;99.90
20744;DHT22;56303;52.160;-0.428;2023-08-20T13:01:05;27.80;99.90
20744;DHT22;56303;52.160;-0.428;2023-08-20T13:03:32;27.70;99.90
20744;DHT22;56303;52.160;-0.428;2023-08-20T13:05:59;26.80;99.90
20744;DHT22;56303;52.160;-0.428;2023-08-20T13:08:26;27.40;99.90
20744;DHT22;56303;52.160;-0.428;2023-08-20T13:10:55;28.50;99.90
20744;DHT22;56303;52.160;-0.428;2023-08-20T13:13:23;28.90;99.90
20744;DHT22;56303;52.160;-0.428;2023-08-20T13:15:52;29.30;99.90
20744;DHT22;56303;52.160;-0.428;2023-08-20T13:18:20;27.90;99.90
20744;DHT22;56303;52.160;-0.428;2023-08-20T13:20:54;27.90;99.90
20744;DHT22;56303;52.160;-0.428;2023-08-20T13:23:22;28.00;99.90
20744;DHT22;56303;52.160;-0.428;2023-08-20T13:25:50;28.30;99.90
20744;DHT22;56303;52.160;-0.428;2023-08-20T13:28:17;28.00;99.90
20744;DHT22;56303;52.160;-0.428;2023-08-20T13:30:44;27.50;99.90
20744;DHT22;56303;52.160;-0.428;2023-08-20T13:33:13;26.80;99.90
20744;DHT22;56303;52.160;-0.428;2023-08-20T13:35:40;26.40;99.90
20744;DHT22;56303;52.160;-0.428;2023-08-20T13:38:07;26.70;99.90
20744;DHT22;56303;52.160;-0.428;2023-08-20T13:40:35;26.20;99.90
20744;DHT22;56303;52.160;-0.428;2023-08-20T13:43:02;26.10;99.90
20744;DHT22;56303;52.160;-0.428;2023-08-20T13:45:29;26.40;99.90
20744;DHT22;56303;52.160;-0.428;2023-08-20T13:47:56;26.30;99.90
20744;DHT22;56303;52.160;-0.428;2023-08-20T13:50:23;26.60;99.90
20744;DHT22;56303;52.160;-0.428;2023-08-20T13:52:50;26.70;99.90
20744;DHT22;56303;52.160;-0.428;2023-08-20T13:55:16;26.70;99.90
20744;DHT22;56303;52.160;-0.428;2023-08-20T13:57:43;26.00;99.90
20744;DHT22;56303;52.160;-0.428;2023-08-20T14:00:10;25.80;99.90
20744;DHT22;56303;52.160;-0.428;2023-08-20T14:02:39;27.20;99.90
20744;DHT22;56303;52.160;-0.428;2023-08-20T14:05:06;28.50;99.90
20744;DHT22;56303;52.160;-0.428;2023-08-20T14:07:33;29.20;99.90
20744;DHT22;56303;52.160;-0.428;2023-08-20T14:10:02;29.40;99.90
20744;DHT22;56303;52.160;-0.428;2023-08-20T14:12:30;30.20;99.50
20744;DHT22;56303;52.160;-0.428;2023-08-20T14:14:57;29.60;98.80
20744;DHT22;56303;52.160;-0.428;2023-08-20T14:17:24;29.30;99.90
20744;DHT22;56303;52.160;-0.428;2023-08-20T14:19:51;30.20;99.00
20744;DHT22;56303;52.160;-0.428;2023-08-20T14:22:18;30.50;98.60
20744;DHT22;56303;52.160;-0.428;2023-08-20T14:24:45;30.30;97.60
20744;DHT22;56303;52.160;-0.428;2023-08-20T14:27:12;30.20;97.80
20744;DHT22;56303;52.160;-0.428;2023-08-20T14:29:40;30.00;98.30
20744;DHT22;56303;52.160;-0.428;2023-08-20T14:32:07;29.80;98.00
20744;DHT22;56303;52.160;-0.428;2023-08-20T14:34:34;30.30;98.00
20744;DHT22;56303;52.160;-0.428;2023-08-20T14:37:01;31.10;97.30
20744;DHT22;56303;52.160;-0.428;2023-08-20T14:39:28;31.30;97.10
20744;DHT22;56303;52.160;-0.428;2023-08-20T14:41:58;31.30;96.80
20744;DHT22;56303;52.160;-0.428;2023-08-20T14:44:25;30.30;96.20
20744;DHT22;56303;52.160;-0.428;2023-08-20T14:46:52;31.00;96.60
20744;DHT22;56303;52.160;-0.428;2023-08-20T14:49:19;31.00;97.10
20744;DHT22;56303;52.160;-0.428;2023-08-20T14:51:46;31.00;95.80
20744;DHT22;56303;52.160;-0.428;2023-08-20T14:54:14;30.90;96.20
20744;DHT22;56303;52.160;-0.428;2023-08-20T14:56:41;30.90;96.40
20744;DHT22;56303;52.160;-0.428;2023-08-20T14:59:08;31.70;94.50
20744;DHT22;56303;52.160;-0.428;2023-08-20T15:01:36;31.00;94.30
20744;DHT22;56303;52.160;-0.428;2023-08-20T15:04:03;29.80;95.30
20744;DHT22;56303;52.160;-0.428;2023-08-20T15:06:30;29.50;94.80
20744;DHT22;56303;52.160;-0.428;2023-08-20T15:08:57;29.10;95.90
20744;DHT22;56303;52.160;-0.428;2023-08-20T15:11:24;29.00;96.70
20744;DHT22;56303;52.160;-0.428;2023-08-20T15:13:51;29.30;95.90
20744;DHT22;56303;52.160;-0.428;2023-08-20T15:16:18;29.00;96.80
20744;DHT22;56303;52.160;-0.428;2023-08-20T15:18:45;29.20;97.20
20744;DHT22;56303;52.160;-0.428;2023-08-20T15:21:12;29.60;96.40
20744;DHT22;56303;52.160;-0.428;2023-08-20T15:23:39;30.30;96.20
20744;DHT22;56303;52.160;-0.428;2023-08-20T15:26:06;30.30;96.50
20744;DHT22;56303;52.160;-0.428;2023-08-20T15:28:33;31.10;95.70
20744;DHT22;56303;52.160;-0.428;2023-08-20T15:31:00;30.40;96.30
20744;DHT22;56303;52.160;-0.428;2023-08-20T15:33:28;30.20;97.00